Boulder, CO (80301)

6:40 PM MDT on September 24, 2016 (GMT -0600)
63rd St and Jay Rd | | Change Station

Elev 5202 ft 40.06 °N, 105.21 °W | Updated 22 seconds ago

Scattered Clouds
Scattered Clouds
60.6 °F
Feels Like 60.6 °F
N
12.1
Wind Variable Wind from West
Gusts 16.0 mph

Today
High -- | Low -- °F
--% Chance of Precip.
Yesterday
High -- | Low -- °F
Precip. -- in
Pressure 30.12 in
Visibility 10.0 miles
Clouds Scattered Clouds 12000 ft
Dew Point 27 °F
Humidity 28%
Rainfall 0.00 in
Snow Depth Not available.
6:50 AM 6:53 PM
Waning Crescent, 33% visible
METAR KBDU 250036Z AUTO 28017G20KT 10SM SCT120 16/M01 A3012 RMK AO2
Pressure 30.12 in
Visibility 10.0 miles
Clouds Scattered Clouds 12000 ft
Dew Point 27 °F
Humidity 28%
Rainfall 0.00 in
Snow Depth Not available.
6:50 AM 6:53 PM
Waning Crescent, 33% visible
METAR KBDU 250036Z AUTO 28017G20KT 10SM SCT120 16/M01 A3012 RMK AO2

10-Day Weather Forecast

Almanac

Astronomy

Sep. 24, 2016 Rise Set
Actual Time
Civil Twilight
Nautical Twilight
Astronomical Twilight
Moon
Length of Visible Light
Length of Day
Tomorrow will be .
, % of the Moon is Illuminated

Today's Extremes

State Highs State Lows

Community

WunderPhotos

Upload Photos

1,941,501 photos uploaded!

WunderBlog® & News

Nearby

Air Quality

  Air Quality AQ Index Pollutant
Not available.

Snow Depth

Station Depth Elevation

Earthquake Activity

City Distance Mag. Time & Date
Minimum magnitude displayed is 2.5.

Coastal Water Temperatures

Place Temperature

Stations

Nearby Weather Stations

Station Location Temp. Windchill Dew Point Humidity Wind Precip. Elev Updated Type
                   

Watches & Warnings

There are currently no watches in effect.